sensor_id;sensor_type;location;lat;lon;timestamp;pressure;altitude;pressure_sealevel;temperature;humidity
59608;BME280;45426;44.726;10.390;2024-01-15T00:02:23;99647.84;;;3.11;100.00
59608;BME280;45426;44.726;10.390;2024-01-15T00:04:48;99654.78;;;3.12;100.00
59608;BME280;45426;44.726;10.390;2024-01-15T00:07:14;99637.03;;;2.88;100.00
59608;BME280;45426;44.726;10.390;2024-01-15T00:09:39;99632.19;;;2.63;100.00
59608;BME280;45426;44.726;10.390;2024-01-15T00:12:05;99621.03;;;2.83;100.00
59608;BME280;45426;44.726;10.390;2024-01-15T00:14:31;99613.91;;;2.79;100.00
59608;BME280;45426;44.726;10.390;2024-01-15T00:16:56;99622.72;;;2.65;100.00
59608;BME280;45426;44.726;10.390;2024-01-15T00:19:22;99625.28;;;2.98;100.00
59608;BME280;45426;44.726;10.390;2024-01-15T00:21:47;99608.28;;;3.03;100.00
59608;BME280;45426;44.726;10.390;2024-01-15T00:24:13;99611.81;;;2.62;100.00
59608;BME280;45426;44.726;10.390;2024-01-15T00:26:39;99609.91;;;2.90;100.00
59608;BME280;45426;44.726;10.390;2024-01-15T00:29:06;99610.66;;;3.04;100.00
59608;BME280;45426;44.726;10.390;2024-01-15T00:31:32;99611.38;;;2.82;100.00
59608;BME280;45426;44.726;10.390;2024-01-15T00:33:57;99605.34;;;2.90;100.00
59608;BME280;45426;44.726;10.390;2024-01-15T00:36:23;99591.81;;;2.96;100.00
59608;BME280;45426;44.726;10.390;2024-01-15T00:38:48;99586.31;;;3.37;100.00
59608;BME280;45426;44.726;10.390;2024-01-15T00:41:14;99591.25;;;3.44;100.00
59608;BME280;45426;44.726;10.390;2024-01-15T00:43:40;99583.50;;;2.56;100.00
59608;BME280;45426;44.726;10.390;2024-01-15T00:46:05;99589.28;;;3.13;100.00
59608;BME280;45426;44.726;10.390;2024-01-15T00:48:31;99582.56;;;3.02;100.00
59608;BME280;45426;44.726;10.390;2024-01-15T00:50:57;99584.16;;;3.25;100.00
59608;BME280;45426;44.726;10.390;2024-01-15T00:53:22;99576.25;;;3.06;100.00
59608;BME280;45426;44.726;10.390;2024-01-15T00:55:48;99573.06;;;2.82;100.00
59608;BME280;45426;44.726;10.390;2024-01-15T00:58:13;99567.75;;;3.27;100.00
59608;BME280;45426;44.726;10.390;2024-01-15T01:00:39;99566.84;;;3.54;100.00
59608;BME280;45426;44.726;10.390;2024-01-15T01:03:04;99568.50;;;3.41;100.00
59608;BME280;45426;44.726;10.390;2024-01-15T01:05:30;99560.16;;;3.43;100.00
59608;BME280;45426;44.726;10.390;2024-01-15T01:07:55;99550.56;;;3.50;100.00
59608;BME280;45426;44.726;10.390;2024-01-15T01:10:20;99556.13;;;3.32;100.00
59608;BME280;45426;44.726;10.390;2024-01-15T01:12:46;99552.63;;;3.31;100.00
59608;BME280;45426;44.726;10.390;2024-01-15T01:15:11;99554.66;;;2.89;100.00
59608;BME280;45426;44.726;10.390;2024-01-15T01:17:37;99558.78;;;2.59;100.00
59608;BME280;45426;44.726;10.390;2024-01-15T01:20:02;99552.22;;;3.38;100.00
59608;BME280;45426;44.726;10.390;2024-01-15T01:22:30;99549.09;;;3.44;100.00
59608;BME280;45426;44.726;10.390;2024-01-15T01:24:55;99550.38;;;3.24;100.00
59608;BME280;45426;44.726;10.390;2024-01-15T01:27:21;99553.72;;;3.30;100.00
59608;BME280;45426;44.726;10.390;2024-01-15T01:29:46;99551.59;;;3.41;100.00
59608;BME280;45426;44.726;10.390;2024-01-15T01:32:12;99559.22;;;3.25;100.00
59608;BME280;45426;44.726;10.390;2024-01-15T01:34:41;99557.81;;;3.05;100.00
59608;BME280;45426;44.726;10.390;2024-01-15T01:37:10;99563.72;;;3.16;100.00
59608;BME280;45426;44.726;10.390;2024-01-15T01:39:38;99564.94;;;3.09;100.00
59608;BME280;45426;44.726;10.390;2024-01-15T01:42:03;99568.03;;;3.03;100.00
59608;BME280;45426;44.726;10.390;2024-01-15T01:44:29;99565.38;;;2.89;100.00
59608;BME280;45426;44.726;10.390;2024-01-15T01:46:54;99557.06;;;3.13;100.00
59608;BME280;45426;44.726;10.390;2024-01-15T01:49:20;99554.25;;;2.96;100.00
59608;BME280;45426;44.726;10.390;2024-01-15T01:51:46;99541.84;;;3.22;100.00
59608;BME280;45426;44.726;10.390;2024-01-15T01:54:12;99536.22;;;3.33;100.00
59608;BME280;45426;44.726;10.390;2024-01-15T01:56:39;99543.47;;;3.09;100.00
59608;BME280;45426;44.726;10.390;2024-01-15T01:59:06;99533.97;;;3.26;100.00
59608;BME280;45426;44.726;10.390;2024-01-15T02:01:33;99530.53;;;3.11;100.00
59608;BME280;45426;44.726;10.390;2024-01-15T02:03:58;99524.50;;;3.28;100.00
59608;BME280;45426;44.726;10.390;2024-01-15T02:06:24;99522.69;;;2.79;100.00
59608;BME280;45426;44.726;10.390;2024-01-15T02:08:50;99532.22;;;2.71;100.00
59608;BME280;45426;44.726;10.390;2024-01-15T02:11:15;99526.31;;;2.97;100.00
59608;BME280;45426;44.726;10.390;2024-01-15T02:13:41;99526.19;;;3.02;100.00
59608;BME280;45426;44.726;10.390;2024-01-15T02:16:07;99534.31;;;2.74;100.00
59608;BME280;45426;44.726;10.390;2024-01-15T02:18:42;99527.22;;;2.92;100.00
59608;BME280;45426;44.726;10.390;2024-01-15T02:21:09;99527.88;;;2.75;100.00
59608;BME280;45426;44.726;10.390;2024-01-15T02:23:34;99531.50;;;2.93;100.00
59608;BME280;45426;44.726;10.390;2024-01-15T02:25:59;99526.28;;;3.10;100.00
59608;BME280;45426;44.726;10.390;2024-01-15T02:28:26;99511.31;;;3.41;100.00
59608;BME280;45426;44.726;10.390;2024-01-15T02:30:51;99518.53;;;3.32;100.00
59608;BME280;45426;44.726;10.390;2024-01-15T02:33:17;99529.75;;;3.11;100.00
59608;BME280;45426;44.726;10.390;2024-01-15T02:35:42;99513.19;;;3.40;100.00
59608;BME280;45426;44.726;10.390;2024-01-15T02:38:08;99510.03;;;3.16;100.00
59608;BME280;45426;44.726;10.390;2024-01-15T02:40:34;99507.00;;;2.72;100.00
59608;BME280;45426;44.726;10.390;2024-01-15T02:42:59;99496.91;;;3.14;100.00
59608;BME280;45426;44.726;10.390;2024-01-15T02:45:25;99508.56;;;2.87;100.00
59608;BME280;45426;44.726;10.390;2024-01-15T02:47:50;99508.59;;;2.73;100.00
59608;BME280;45426;44.726;10.390;2024-01-15T02:50:16;99504.72;;;2.79;100.00
59608;BME280;45426;44.726;10.390;2024-01-15T02:52:42;99505.00;;;3.37;100.00
59608;BME280;45426;44.726;10.390;2024-01-15T02:55:08;99502.28;;;3.14;100.00
59608;BME280;45426;44.726;10.390;2024-01-15T02:57:34;99493.63;;;3.40;100.00
59608;BME280;45426;44.726;10.390;2024-01-15T02:59:59;99488.44;;;3.43;100.00
59608;BME280;45426;44.726;10.390;2024-01-15T03:02:25;99481.03;;;2.59;100.00
59608;BME280;45426;44.726;10.390;2024-01-15T03:04:50;99484.28;;;2.56;100.00
59608;BME280;45426;44.726;10.390;2024-01-15T03:07:15;99465.94;;;3.08;100.00
59608;BME280;45426;44.726;10.390;2024-01-15T03:09:41;99459.78;;;2.48;100.00
59608;BME280;45426;44.726;10.390;2024-01-15T03:12:07;99456.84;;;2.22;100.00
59608;BME280;45426;44.726;10.390;2024-01-15T03:14:32;99453.66;;;2.34;100.00
59608;BME280;45426;44.726;10.390;2024-01-15T03:16:57;99449.88;;;2.49;100.00
59608;BME280;45426;44.726;10.390;2024-01-15T03:19:23;99441.66;;;2.68;100.00
59608;BME280;45426;44.726;10.390;2024-01-15T03:21:48;99437.59;;;2.93;100.00
59608;BME280;45426;44.726;10.390;2024-01-15T03:24:14;99429.50;;;2.84;100.00
59608;BME280;45426;44.726;10.390;2024-01-15T03:26:39;99420.81;;;3.41;100.00
59608;BME280;45426;44.726;10.390;2024-01-15T03:29:05;99418.50;;;3.57;100.00
59608;BME280;45426;44.726;10.390;2024-01-15T03:31:30;99426.00;;;3.38;100.00
59608;BME280;45426;44.726;10.390;2024-01-15T03:33:56;99417.72;;;3.48;100.00
59608;BME280;45426;44.726;10.390;2024-01-15T03:36:21;99416.09;;;3.47;100.00
59608;BME280;45426;44.726;10.390;2024-01-15T03:38:47;99418.78;;;3.47;100.00
59608;BME280;45426;44.726;10.390;2024-01-15T03:41:12;99413.00;;;3.62;100.00
59608;BME280;45426;44.726;10.390;2024-01-15T03:43:38;99400.00;;;3.16;100.00
59608;BME280;45426;44.726;10.390;2024-01-15T03:46:03;99394.41;;;3.35;100.00
59608;BME280;45426;44.726;10.390;2024-01-15T03:48:29;99385.06;;;3.63;100.00
59608;BME280;45426;44.726;10.390;2024-01-15T03:50:55;99381.91;;;3.30;100.00
59608;BME280;45426;44.726;10.390;2024-01-15T03:53:21;99380.41;;;3.46;100.00
59608;BME280;45426;44.726;10.390;2024-01-15T03:55:46;99381.03;;;3.43;100.00
59608;BME280;45426;44.726;10.390;2024-01-15T03:58:11;99384.03;;;3.10;100.00
59608;BME280;45426;44.726;10.390;2024-01-15T04:00:37;99390.72;;;3.22;100.00
59608;BME280;45426;44.726;10.390;2024-01-15T04:03:02;99376.97;;;3.23;100.00
59608;BME280;45426;44.726;10.390;2024-01-15T04:05:28;99379.69;;;3.01;100.00
59608;BME280;45426;44.726;10.390;2024-01-15T04:07:53;99383.06;;;3.06;100.00
59608;BME280;45426;44.726;10.390;2024-01-15T04:10:18;99385.09;;;2.78;100.00
59608;BME280;45426;44.726;10.390;2024-01-15T04:12:44;99381.03;;;3.12;100.00
59608;BME280;45426;44.726;10.390;2024-01-15T04:15:12;99386.88;;;2.60;100.00
59608;BME280;45426;44.726;10.390;2024-01-15T04:17:37;99382.19;;;2.66;100.00
59608;BME280;45426;44.726;10.390;2024-01-15T04:20:03;99386.88;;;2.60;100.00
59608;BME280;45426;44.726;10.390;2024-01-15T04:22:29;99376.06;;;2.97;100.00
59608;BME280;45426;44.726;10.390;2024-01-15T04:24:54;99365.03;;;2.98;100.00
59608;BME280;45426;44.726;10.390;2024-01-15T04:27:19;99374.09;;;3.11;100.00
59608;BME280;45426;44.726;10.390;2024-01-15T04:29:45;99363.19;;;3.07;100.00
59608;BME280;45426;44.726;10.390;2024-01-15T04:32:10;99359.72;;;3.07;100.00
59608;BME280;45426;44.726;10.390;2024-01-15T04:34:36;99356.78;;;2.95;100.00
59608;BME280;45426;44.726;10.390;2024-01-15T04:37:01;99355.06;;;3.30;100.00
59608;BME280;45426;44.726;10.390;2024-01-15T04:39:27;99350.94;;;3.24;100.00
59608;BME280;45426;44.726;10.390;2024-01-15T04:41:52;99353.78;;;3.67;100.00
59608;BME280;45426;44.726;10.390;2024-01-15T04:44:18;99351.31;;;3.40;100.00
59608;BME280;45426;44.726;10.390;2024-01-15T04:46:43;99342.13;;;3.01;100.00
59608;BME280;45426;44.726;10.390;2024-01-15T04:49:10;99337.88;;;3.40;100.00
59608;BME280;45426;44.726;10.390;2024-01-15T04:51:35;99341.13;;;3.59;100.00
59608;BME280;45426;44.726;10.390;2024-01-15T04:54:01;99343.81;;;3.19;100.00
59608;BME280;45426;44.726;10.390;2024-01-15T04:56:26;99342.25;;;3.18;100.00
59608;BME280;45426;44.726;10.390;2024-01-15T04:58:51;99338.69;;;3.40;100.00
59608;BME280;45426;44.726;10.390;2024-01-15T05:01:17;99350.28;;;3.18;100.00
59608;BME280;45426;44.726;10.390;2024-01-15T05:03:43;99352.03;;;3.72;100.00
59608;BME280;45426;44.726;10.390;2024-01-15T05:06:08;99359.41;;;3.48;100.00
59608;BME280;45426;44.726;10.390;2024-01-15T05:08:34;99368.25;;;3.09;100.00
59608;BME280;45426;44.726;10.390;2024-01-15T05:10:59;99361.31;;;3.48;100.00
59608;BME280;45426;44.726;10.390;2024-01-15T05:13:24;99363.22;;;3.56;100.00
59608;BME280;45426;44.726;10.390;2024-01-15T05:15:50;99377.63;;;3.20;100.00
59608;BME280;45426;44.726;10.390;2024-01-15T05:18:16;99380.25;;;3.43;100.00
59608;BME280;45426;44.726;10.390;2024-01-15T05:20:41;99386.03;;;3.27;100.00
59608;BME280;45426;44.726;10.390;2024-01-15T05:23:07;99382.44;;;3.09;100.00
59608;BME280;45426;44.726;10.390;2024-01-15T05:25:33;99390.69;;;3.13;100.00
59608;BME280;45426;44.726;10.390;2024-01-15T05:27:58;99395.16;;;3.26;100.00
59608;BME280;45426;44.726;10.390;2024-01-15T05:30:24;99385.19;;;3.18;100.00
59608;BME280;45426;44.726;10.390;2024-01-15T05:32:49;99380.84;;;2.77;100.00
59608;BME280;45426;44.726;10.390;2024-01-15T05:35:15;99375.09;;;2.92;100.00
59608;BME280;45426;44.726;10.390;2024-01-15T05:37:43;99376.19;;;3.23;100.00
59608;BME280;45426;44.726;10.390;2024-01-15T05:40:10;99357.75;;;2.99;100.00
59608;BME280;45426;44.726;10.390;2024-01-15T05:42:36;99342.66;;;2.80;100.00
59608;BME280;45426;44.726;10.390;2024-01-15T05:45:02;99327.03;;;2.82;100.00
59608;BME280;45426;44.726;10.390;2024-01-15T05:47:30;99319.94;;;2.78;100.00
59608;BME280;45426;44.726;10.390;2024-01-15T05:49:56;99308.00;;;2.92;100.00
59608;BME280;45426;44.726;10.390;2024-01-15T05:52:21;99300.88;;;2.57;100.00
59608;BME280;45426;44.726;10.390;2024-01-15T05:54:47;99308.38;;;3.00;100.00
59608;BME280;45426;44.726;10.390;2024-01-15T05:57:12;99313.44;;;3.10;100.00
59608;BME280;45426;44.726;10.390;2024-01-15T05:59:38;99320.06;;;3.04;100.00
59608;BME280;45426;44.726;10.390;2024-01-15T06:02:03;99326.75;;;3.15;100.00
59608;BME280;45426;44.726;10.390;2024-01-15T06:04:29;99336.94;;;3.36;100.00
59608;BME280;45426;44.726;10.390;2024-01-15T06:06:55;99328.06;;;3.26;100.00
59608;BME280;45426;44.726;10.390;2024-01-15T06:09:20;99316.50;;;2.86;100.00
59608;BME280;45426;44.726;10.390;2024-01-15T06:11:45;99321.38;;;2.84;100.00
59608;BME280;45426;44.726;10.390;2024-01-15T06:14:11;99328.47;;;3.20;100.00
59608;BME280;45426;44.726;10.390;2024-01-15T06:16:36;99320.13;;;3.21;100.00
59608;BME280;45426;44.726;10.390;2024-01-15T06:19:02;99318.88;;;3.19;100.00
59608;BME280;45426;44.726;10.390;2024-01-15T06:21:28;99321.00;;;3.39;100.00
59608;BME280;45426;44.726;10.390;2024-01-15T06:23:53;99331.25;;;3.37;100.00
59608;BME280;45426;44.726;10.390;2024-01-15T06:26:19;99341.97;;;3.28;100.00
59608;BME280;45426;44.726;10.390;2024-01-15T06:28:44;99332.34;;;3.36;100.00
59608;BME280;45426;44.726;10.390;2024-01-15T06:31:10;99323.19;;;3.37;100.00
59608;BME280;45426;44.726;10.390;2024-01-15T06:33:35;99324.00;;;3.38;100.00
59608;BME280;45426;44.726;10.390;2024-01-15T06:36:00;99316.78;;;3.07;100.00
59608;BME280;45426;44.726;10.390;2024-01-15T06:38:26;99317.78;;;3.28;100.00
59608;BME280;45426;44.726;10.390;2024-01-15T06:40:51;99320.88;;;3.44;100.00
59608;BME280;45426;44.726;10.390;2024-01-15T06:43:17;99322.31;;;2.79;100.00
59608;BME280;45426;44.726;10.390;2024-01-15T06:45:43;99322.56;;;3.32;100.00
59608;BME280;45426;44.726;10.390;2024-01-15T06:48:09;99338.97;;;3.30;100.00
59608;BME280;45426;44.726;10.390;2024-01-15T06:50:34;99333.34;;;3.49;100.00
59608;BME280;45426;44.726;10.390;2024-01-15T06:53:00;99334.38;;;3.22;100.00
59608;BME280;45426;44.726;10.390;2024-01-15T06:55:25;99325.13;;;3.45;100.00
59608;BME280;45426;44.726;10.390;2024-01-15T06:57:51;99321.13;;;3.34;100.00
59608;BME280;45426;44.726;10.390;2024-01-15T07:00:17;99318.03;;;3.58;100.00
59608;BME280;45426;44.726;10.390;2024-01-15T07:02:45;99294.31;;;3.52;100.00
59608;BME280;45426;44.726;10.390;2024-01-15T07:05:10;99294.31;;;3.43;100.00
59608;BME280;45426;44.726;10.390;2024-01-15T07:07:36;99298.38;;;3.32;100.00
59608;BME280;45426;44.726;10.390;2024-01-15T07:10:01;99294.97;;;3.57;100.00
59608;BME280;45426;44.726;10.390;2024-01-15T07:12:29;99285.03;;;3.66;100.00
59608;BME280;45426;44.726;10.390;2024-01-15T07:14:54;99296.41;;;3.55;100.00
59608;BME280;45426;44.726;10.390;2024-01-15T07:17:20;99292.09;;;3.45;100.00
59608;BME280;45426;44.726;10.390;2024-01-15T07:19:46;99300.03;;;3.50;100.00
59608;BME280;45426;44.726;10.390;2024-01-15T07:22:12;99305.72;;;3.08;100.00
59608;BME280;45426;44.726;10.390;2024-01-15T07:24:37;99303.31;;;2.98;100.00
59608;BME280;45426;44.726;10.390;2024-01-15T07:27:03;99310.69;;;3.24;100.00
59608;BME280;45426;44.726;10.390;2024-01-15T07:29:30;99304.41;;;3.46;100.00
59608;BME280;45426;44.726;10.390;2024-01-15T07:31:58;99314.44;;;3.63;100.00
59608;BME280;45426;44.726;10.390;2024-01-15T07:34:24;99311.06;;;3.57;100.00
59608;BME280;45426;44.726;10.390;2024-01-15T07:36:49;99300.97;;;3.54;100.00
59608;BME280;45426;44.726;10.390;2024-01-15T07:39:14;99303.72;;;3.80;100.00
59608;BME280;45426;44.726;10.390;2024-01-15T07:41:40;99296.13;;;3.82;100.00
59608;BME280;45426;44.726;10.390;2024-01-15T07:44:05;99294.69;;;3.67;100.00
59608;BME280;45426;44.726;10.390;2024-01-15T07:46:31;99301.34;;;3.96;100.00
59608;BME280;45426;44.726;10.390;2024-01-15T07:48:57;99299.47;;;4.05;100.00
59608;BME280;45426;44.726;10.390;2024-01-15T07:51:25;99307.31;;;3.76;100.00
59608;BME280;45426;44.726;10.390;2024-01-15T07:53:52;99315.50;;;3.53;100.00
59608;BME280;45426;44.726;10.390;2024-01-15T07:56:18;99321.59;;;3.94;100.00
59608;BME280;45426;44.726;10.390;2024-01-15T07:58:43;99311.94;;;4.01;100.00
59608;BME280;45426;44.726;10.390;2024-01-15T08:01:09;99312.09;;;3.96;100.00
59608;BME280;45426;44.726;10.390;2024-01-15T08:03:34;99322.84;;;3.96;100.00
59608;BME280;45426;44.726;10.390;2024-01-15T08:06:00;99338.47;;;3.77;100.00
59608;BME280;45426;44.726;10.390;2024-01-15T08:08:25;99322.69;;;4.01;100.00
59608;BME280;45426;44.726;10.390;2024-01-15T08:10:54;99318.13;;;4.19;100.00
59608;BME280;45426;44.726;10.390;2024-01-15T08:13:19;99328.69;;;3.98;100.00
59608;BME280;45426;44.726;10.390;2024-01-15T08:15:46;99325.25;;;3.89;100.00
59608;BME280;45426;44.726;10.390;2024-01-15T08:18:11;99326.81;;;4.07;100.00
59608;BME280;45426;44.726;10.390;2024-01-15T08:20:37;99316.38;;;4.58;100.00
59608;BME280;45426;44.726;10.390;2024-01-15T08:23:03;99310.53;;;4.30;100.00
59608;BME280;45426;44.726;10.390;2024-01-15T08:25:28;99316.50;;;4.62;100.00
59608;BME280;45426;44.726;10.390;2024-01-15T08:27:54;99323.63;;;4.58;100.00
59608;BME280;45426;44.726;10.390;2024-01-15T08:30:19;99335.19;;;4.50;100.00
59608;BME280;45426;44.726;10.390;2024-01-15T08:32:46;99330.16;;;4.22;100.00
59608;BME280;45426;44.726;10.390;2024-01-15T08:35:11;99331.56;;;4.28;100.00
59608;BME280;45426;44.726;10.390;2024-01-15T08:37:37;99320.94;;;4.58;100.00
59608;BME280;45426;44.726;10.390;2024-01-15T08:40:03;99326.78;;;4.60;100.00
59608;BME280;45426;44.726;10.390;2024-01-15T08:42:29;99338.31;;;4.86;100.00
59608;BME280;45426;44.726;10.390;2024-01-15T08:44:54;99350.38;;;4.63;100.00
59608;BME280;45426;44.726;10.390;2024-01-15T08:47:20;99343.66;;;5.04;100.00
59608;BME280;45426;44.726;10.390;2024-01-15T08:49:45;99344.22;;;4.27;100.00
59608;BME280;45426;44.726;10.390;2024-01-15T08:52:11;99341.19;;;4.73;100.00
59608;BME280;45426;44.726;10.390;2024-01-15T08:54:36;99332.25;;;4.98;100.00
59608;BME280;45426;44.726;10.390;2024-01-15T08:57:02;99338.84;;;4.54;100.00
59608;BME280;45426;44.726;10.390;2024-01-15T08:59:28;99321.50;;;4.98;100.00
59608;BME280;45426;44.726;10.390;2024-01-15T09:01:53;99318.63;;;5.03;100.00
59608;BME280;45426;44.726;10.390;2024-01-15T09:04:19;99327.28;;;5.56;100.00
59608;BME280;45426;44.726;10.390;2024-01-15T09:06:45;99333.47;;;5.78;100.00
59608;BME280;45426;44.726;10.390;2024-01-15T09:09:12;99339.16;;;5.55;100.00
59608;BME280;45426;44.726;10.390;2024-01-15T09:11:38;99332.63;;;5.95;100.00
59608;BME280;45426;44.726;10.390;2024-01-15T09:14:03;99337.91;;;5.82;100.00
59608;BME280;45426;44.726;10.390;2024-01-15T09:16:29;99326.91;;;5.67;100.00
59608;BME280;45426;44.726;10.390;2024-01-15T09:18:54;99327.09;;;5.23;100.00
59608;BME280;45426;44.726;10.390;2024-01-15T09:21:22;99324.03;;;5.93;100.00
59608;BME280;45426;44.726;10.390;2024-01-15T09:23:50;99315.00;;;5.97;100.00
59608;BME280;45426;44.726;10.390;2024-01-15T09:26:15;99320.00;;;6.08;100.00
59608;BME280;45426;44.726;10.390;2024-01-15T09:28:41;99322.94;;;6.57;100.00
59608;BME280;45426;44.726;10.390;2024-01-15T09:31:06;99323.56;;;6.41;100.00
59608;BME280;45426;44.726;10.390;2024-01-15T09:33:31;99329.22;;;6.28;100.00
59608;BME280;45426;44.726;10.390;2024-01-15T09:35:57;99325.94;;;6.22;100.00
59608;BME280;45426;44.726;10.390;2024-01-15T09:38:22;99329.44;;;6.56;100.00
59608;BME280;45426;44.726;10.390;2024-01-15T09:40:49;99327.88;;;7.00;100.00
59608;BME280;45426;44.726;10.390;2024-01-15T09:43:16;99326.53;;;7.07;100.00
59608;BME280;45426;44.726;10.390;2024-01-15T09:45:42;99328.16;;;7.20;100.00
59608;BME280;45426;44.726;10.390;2024-01-15T09:48:08;99326.47;;;7.28;100.00
59608;BME280;45426;44.726;10.390;2024-01-15T09:50:34;99328.28;;;7.36;100.00
59608;BME280;45426;44.726;10.390;2024-01-15T09:53:00;99323.53;;;7.82;100.00
59608;BME280;45426;44.726;10.390;2024-01-15T09:55:26;99319.41;;;8.53;100.00
59608;BME280;45426;44.726;10.390;2024-01-15T09:57:53;99317.31;;;8.34;100.00
59608;BME280;45426;44.726;10.390;2024-01-15T10:00:20;99292.56;;;10.11;100.00
59608;BME280;45426;44.726;10.390;2024-01-15T10:02:45;99287.09;;;12.22;100.00
59608;BME280;45426;44.726;10.390;2024-01-15T10:05:11;99279.91;;;13.71;100.00
59608;BME280;45426;44.726;10.390;2024-01-15T10:07:37;99273.22;;;14.46;100.00
59608;BME280;45426;44.726;10.390;2024-01-15T10:10:03;99265.88;;;15.47;100.00
59608;BME280;45426;44.726;10.390;2024-01-15T10:12:29;99260.09;;;19.06;100.00
59608;BME280;45426;44.726;10.390;2024-01-15T10:14:56;99260.56;;;18.47;100.00
59608;BME280;45426;44.726;10.390;2024-01-15T10:17:21;99254.81;;;19.39;100.00
59608;BME280;45426;44.726;10.390;2024-01-15T10:19:47;99247.47;;;19.76;100.00
59608;BME280;45426;44.726;10.390;2024-01-15T10:22:14;99259.19;;;15.77;100.00
59608;BME280;45426;44.726;10.390;2024-01-15T10:24:40;99256.00;;;14.45;100.00
59608;BME280;45426;44.726;10.390;2024-01-15T10:27:10;99264.38;;;16.45;100.00
59608;BME280;45426;44.726;10.390;2024-01-15T10:29:36;99249.19;;;18.45;100.00
59608;BME280;45426;44.726;10.390;2024-01-15T10:32:03;99250.66;;;13.16;100.00
59608;BME280;45426;44.726;10.390;2024-01-15T10:34:30;99251.38;;;11.14;100.00
59608;BME280;45426;44.726;10.390;2024-01-15T10:36:55;99250.34;;;10.53;100.00
59608;BME280;45426;44.726;10.390;2024-01-15T10:39:24;99247.50;;;9.51;100.00
59608;BME280;45426;44.726;10.390;2024-01-15T10:41:50;99246.97;;;9.81;100.00
59608;BME280;45426;44.726;10.390;2024-01-15T10:44:19;99238.34;;;10.54;100.00
59608;BME280;45426;44.726;10.390;2024-01-15T10:46:45;99236.41;;;10.15;100.00
59608;BME280;45426;44.726;10.390;2024-01-15T10:49:11;99219.34;;;10.15;100.00
59608;BME280;45426;44.726;10.390;2024-01-15T10:51:37;99214.59;;;9.33;100.00
59608;BME280;45426;44.726;10.390;2024-01-15T10:54:04;99217.19;;;11.13;100.00
59608;BME280;45426;44.726;10.390;2024-01-15T10:56:30;99198.03;;;13.75;100.00
59608;BME280;45426;44.726;10.390;2024-01-15T10:58:56;99204.47;;;10.94;100.00
59608;BME280;45426;44.726;10.390;2024-01-15T11:01:23;99194.22;;;10.37;100.00
59608;BME280;45426;44.726;10.390;2024-01-15T11:03:49;99199.38;;;11.72;100.00
59608;BME280;45426;44.726;10.390;2024-01-15T11:06:18;99190.91;;;10.71;100.00
59608;BME280;45426;44.726;10.390;2024-01-15T11:08:48;99181.75;;;11.62;100.00
59608;BME280;45426;44.726;10.390;2024-01-15T11:11:16;99181.41;;;10.84;100.00
59608;BME280;45426;44.726;10.390;2024-01-15T11:13:41;99177.13;;;11.36;100.00
59608;BME280;45426;44.726;10.390;2024-01-15T11:16:11;99173.97;;;9.92;100.00
59608;BME280;45426;44.726;10.390;2024-01-15T11:18:40;99170.84;;;10.79;100.00
59608;BME280;45426;44.726;10.390;2024-01-15T11:23:43;99161.03;;;10.97;100.00
59608;BME280;45426;44.726;10.390;2024-01-15T11:29:09;99143.72;;;9.16;100.00
59608;BME280;45426;44.726;10.390;2024-01-15T11:34:04;99139.94;;;10.18;100.00
59608;BME280;45426;44.726;10.390;2024-01-15T11:42:02;99129.13;;;9.98;100.00
59608;BME280;45426;44.726;10.390;2024-01-15T11:44:29;99117.13;;;10.42;100.00
59608;BME280;45426;44.726;10.390;2024-01-15T11:46:59;99112.25;;;10.78;100.00
59608;BME280;45426;44.726;10.390;2024-01-15T11:52:17;99114.06;;;10.24;100.00
59608;BME280;45426;44.726;10.390;2024-01-15T11:55:03;99105.53;;;10.72;100.00
59608;BME280;45426;44.726;10.390;2024-01-15T11:57:57;99100.63;;;10.81;100.00
59608;BME280;45426;44.726;10.390;2024-01-15T12:00:23;99097.47;;;11.02;100.00
59608;BME280;45426;44.726;10.390;2024-01-15T12:02:50;99083.78;;;10.45;100.00
59608;BME280;45426;44.726;10.390;2024-01-15T12:05:17;99074.31;;;10.12;100.00
59608;BME280;45426;44.726;10.390;2024-01-15T12:07:45;99068.09;;;9.88;100.00
59608;BME280;45426;44.726;10.390;2024-01-15T12:10:12;99070.22;;;10.22;100.00
59608;BME280;45426;44.726;10.390;2024-01-15T12:12:57;99057.91;;;10.05;100.00
59608;BME280;45426;44.726;10.390;2024-01-15T12:15:24;99062.88;;;9.57;100.00
59608;BME280;45426;44.726;10.390;2024-01-15T12:17:50;99055.44;;;9.73;100.00
59608;BME280;45426;44.726;10.390;2024-01-15T12:20:17;99051.09;;;9.91;100.00
59608;BME280;45426;44.726;10.390;2024-01-15T12:22:42;99049.34;;;10.76;100.00
59608;BME280;45426;44.726;10.390;2024-01-15T12:25:09;99039.06;;;10.12;100.00
59608;BME280;45426;44.726;10.390;2024-01-15T12:27:34;99031.50;;;10.25;100.00
59608;BME280;45426;44.726;10.390;2024-01-15T12:30:00;99025.47;;;10.62;100.00
59608;BME280;45426;44.726;10.390;2024-01-15T12:32:26;99029.09;;;10.43;100.00
59608;BME280;45426;44.726;10.390;2024-01-15T12:34:51;99032.44;;;10.59;100.00
59608;BME280;45426;44.726;10.390;2024-01-15T12:37:20;99029.88;;;10.20;100.00
59608;BME280;45426;44.726;10.390;2024-01-15T12:39:46;99027.47;;;10.38;100.00
59608;BME280;45426;44.726;10.390;2024-01-15T12:42:14;99020.28;;;10.03;100.00
59608;BME280;45426;44.726;10.390;2024-01-15T12:44:39;99011.59;;;10.17;100.00
59608;BME280;45426;44.726;10.390;2024-01-15T12:47:05;99007.53;;;10.54;100.00
59608;BME280;45426;44.726;10.390;2024-01-15T12:49:31;99010.38;;;10.38;100.00
59608;BME280;45426;44.726;10.390;2024-01-15T12:51:57;99004.59;;;10.16;100.00
59608;BME280;45426;44.726;10.390;2024-01-15T12:54:23;99007.53;;;10.54;100.00
59608;BME280;45426;44.726;10.390;2024-01-15T12:56:49;98997.59;;;10.65;100.00
59608;BME280;45426;44.726;10.390;2024-01-15T12:59:15;98992.00;;;10.84;100.00